Time;durP1;ratioP1;P1;durP2;ratioP2;P2;SDS_P1;SDS_P2;PMS_P1;PMS_P2;Temp;Humidity;BMP_temperature;BMP_pressure;BME280_temperature;BME280_humidity;BME280_pressure;Samples;Min_cycle;Max_cycle;Signal;HPM_P1;HPM_P2
2024/01/24 00:01:54;;;;;;;3.97;1.25;;;;;;;18.63;47.73;101315.84;4948200;29;20035;-70
2024/01/24 00:04:20;;;;;;;3.72;1.30;;;;;;;18.53;47.69;101279.69;4948989;29;20027;-70
2024/01/24 00:06:45;;;;;;;3.75;1.20;;;;;;;18.60;47.40;101260.66;4949383;28;20093;-69
2024/01/24 00:09:10;;;;;;;4.55;1.40;;;;;;;18.64;47.49;101299.06;4949909;29;20035;-70
2024/01/24 00:11:36;;;;;;;4.82;1.48;;;;;;;18.70;47.66;101299.53;4950017;29;20039;-70
2024/01/24 00:14:01;;;;;;;3.17;1.17;;;;;;;18.62;47.72;101313.31;4949598;29;20392;-68
2024/01/24 00:16:26;;;;;;;3.83;1.40;;;;;;;18.58;47.73;101312.72;4948778;29;20039;-70
2024/01/24 00:18:51;;;;;;;3.15;1.05;;;;;;;18.57;47.53;101308.38;4947944;29;20028;-69
2024/01/24 00:21:17;;;;;;;3.50;1.00;;;;;;;18.66;47.75;101357.03;4949593;29;20456;-68
2024/01/24 00:23:42;;;;;;;3.67;1.20;;;;;;;18.64;47.78;101335.16;4949114;29;20027;-69
2024/01/24 00:26:07;;;;;;;2.63;0.90;;;;;;;18.59;47.70;101332.03;4949102;29;20074;-70
2024/01/24 00:28:33;;;;;;;3.90;1.20;;;;;;;18.51;47.88;101315.94;4948745;29;20035;-70
2024/01/24 00:30:58;;;;;;;2.88;0.95;;;;;;;18.54;47.87;101310.44;4949442;29;20252;-68
2024/01/24 00:33:27;;;;;;;3.60;1.13;;;;;;;18.51;47.89;101311.50;4949145;29;20043;-70
2024/01/24 00:35:52;;;;;;;3.10;1.10;;;;;;;18.64;47.69;101301.69;4949233;28;20183;-68
2024/01/24 00:38:18;;;;;;;2.88;0.85;;;;;;;18.55;47.96;101296.25;4949231;29;20118;-69
2024/01/24 00:40:43;;;;;;;2.83;0.90;;;;;;;18.59;47.82;101297.72;4949112;29;20042;-70
2024/01/24 00:43:08;;;;;;;3.15;0.90;;;;;;;18.60;47.70;101307.31;4949334;28;20452;-70
2024/01/24 00:45:33;;;;;;;3.60;1.40;;;;;;;18.47;47.81;101292.41;4948995;29;20035;-68
2024/01/24 00:47:59;;;;;;;2.13;0.88;;;;;;;18.51;47.99;101303.56;4949219;29;20039;-68
2024/01/24 00:50:24;;;;;;;2.92;0.80;;;;;;;18.58;48.15;101304.81;4949223;29;20086;-69
2024/01/24 00:52:52;;;;;;;2.10;0.70;;;;;;;18.53;48.12;101288.44;4947849;29;20035;-70
2024/01/24 00:55:18;;;;;;;4.28;0.98;;;;;;;18.46;47.92;101271.41;4949120;29;20047;-69
2024/01/24 00:57:43;;;;;;;4.80;0.95;;;;;;;18.55;48.06;101307.69;4948966;28;20042;-68
2024/01/24 01:00:10;;;;;;;2.22;0.80;;;;;;;18.53;48.00;101320.13;4949179;29;20047;-69
2024/01/24 01:02:36;;;;;;;2.83;0.75;;;;;;;18.54;47.86;101305.97;4946497;28;20388;-68
2024/01/24 01:05:01;;;;;;;2.72;0.98;;;;;;;18.44;47.85;101292.63;4947095;29;20039;-67
2024/01/24 01:07:26;;;;;;;1.75;0.75;;;;;;;18.53;48.04;101306.94;4948635;29;20046;-70
2024/01/24 01:09:52;;;;;;;3.13;0.90;;;;;;;18.53;48.17;101299.00;4948535;29;20035;-70
2024/01/24 01:12:17;;;;;;;2.53;0.90;;;;;;;18.44;48.25;101292.63;4949004;29;20035;-70
2024/01/24 01:14:42;;;;;;;3.10;0.88;;;;;;;18.43;48.10;101295.41;4948123;29;20646;-68
2024/01/24 01:17:08;;;;;;;2.88;0.80;;;;;;;18.51;48.29;101293.00;4948300;29;20035;-70
2024/01/24 01:19:34;;;;;;;2.28;0.77;;;;;;;18.47;48.05;101286.31;4948365;29;20031;-70
2024/01/24 01:21:59;;;;;;;4.28;1.00;;;;;;;18.43;48.24;101284.84;4948398;28;20066;-70
2024/01/24 01:24:24;;;;;;;3.23;0.87;;;;;;;18.50;48.17;101296.63;4948414;29;20059;-70
2024/01/24 01:26:49;;;;;;;1.73;0.73;;;;;;;18.48;48.45;101291.47;4948650;29;20285;-69
2024/01/24 01:29:15;;;;;;;2.80;0.95;;;;;;;18.43;48.28;101303.31;4948628;29;20064;-70
2024/01/24 01:31:40;;;;;;;1.90;0.80;;;;;;;18.43;48.15;101272.47;4948252;29;20480;-70
2024/01/24 01:34:05;;;;;;;2.22;0.75;;;;;;;18.43;48.26;101266.38;4944956;29;20265;-68
2024/01/24 01:36:31;;;;;;;2.55;0.80;;;;;;;18.45;48.50;101269.72;4947856;29;20051;-70
2024/01/24 01:38:56;;;;;;;2.20;0.70;;;;;;;18.35;48.35;101261.66;4948380;29;20035;-71
2024/01/24 01:41:21;;;;;;;1.63;0.80;;;;;;;18.43;48.48;101287.47;4948594;29;20114;-71
2024/01/24 01:43:46;;;;;;;2.22;0.80;;;;;;;18.44;48.77;101290.00;4947993;29;20052;-69
2024/01/24 01:46:21;;;;;;;1.52;0.63;;;;;;;18.40;48.58;101296.47;4947984;29;20043;-70
2024/01/24 01:48:49;;;;;;;2.72;0.70;;;;;;;18.40;48.47;101277.97;4948671;28;20035;-69
2024/01/24 01:51:16;;;;;;;1.70;0.70;;;;;;;18.34;48.59;101296.09;4948140;28;20031;-69
2024/01/24 01:53:42;;;;;;;3.30;0.80;;;;;;;18.30;48.83;101282.28;4948503;28;20043;-70
2024/01/24 01:56:12;;;;;;;1.35;0.60;;;;;;;18.42;48.52;101299.84;4948343;28;20453;-70
2024/01/24 01:58:39;;;;;;;1.85;0.73;;;;;;;18.35;48.69;101295.13;4948265;28;20358;-70
2024/01/24 02:01:06;;;;;;;1.42;0.70;;;;;;;18.28;48.79;101281.56;4948331;28;20027;-69
2024/01/24 02:03:31;;;;;;;1.85;0.80;;;;;;;18.38;48.73;101287.81;4946786;29;20043;-70
2024/01/24 02:05:57;;;;;;;1.10;0.63;;;;;;;18.36;48.81;101287.09;4947419;28;20049;-70
2024/01/24 02:08:22;;;;;;;1.88;0.50;;;;;;;18.37;49.07;101275.56;4948304;28;20031;-71
2024/01/24 02:10:47;;;;;;;2.08;0.80;;;;;;;18.31;48.85;101273.44;4948087;29;20040;-70
2024/01/24 02:13:13;;;;;;;2.58;0.82;;;;;;;18.36;48.75;101280.97;4947875;28;20039;-66
2024/01/24 02:15:38;;;;;;;1.70;0.70;;;;;;;18.29;49.05;101272.69;4948420;28;20070;-70
2024/01/24 02:18:04;;;;;;;1.50;0.60;;;;;;;18.30;49.10;101274.38;4948589;29;20367;-71
2024/01/24 02:20:31;;;;;;;1.65;0.65;;;;;;;18.25;49.22;101272.06;4948435;28;20043;-69
2024/01/24 02:22:56;;;;;;;1.38;0.70;;;;;;;18.23;49.15;101262.59;4948191;28;20023;-69
2024/01/24 02:25:22;;;;;;;1.25;0.50;;;;;;;18.33;49.03;101295.25;4946745;28;20042;-70
2024/01/24 02:27:47;;;;;;;0.98;0.50;;;;;;;18.23;49.05;101268.72;4947860;29;20039;-69
2024/01/24 02:30:12;;;;;;;1.15;0.50;;;;;;;18.34;49.21;101285.53;4949073;28;20219;-70
2024/01/24 02:32:41;;;;;;;1.92;0.60;;;;;;;18.21;49.26;101261.88;4951543;28;20035;-68
2024/01/24 02:35:06;;;;;;;2.17;0.55;;;;;;;18.22;49.39;101274.94;4951415;29;20043;-70
2024/01/24 02:37:32;;;;;;;1.38;0.60;;;;;;;18.33;49.51;101300.53;4951454;28;20527;-70
2024/01/24 02:39:57;;;;;;;2.00;0.70;;;;;;;18.21;49.39;101277.69;4951117;29;20454;-68
2024/01/24 02:42:23;;;;;;;1.48;0.75;;;;;;;18.19;49.34;101282.25;4951405;28;20035;-68
2024/01/24 02:44:49;;;;;;;1.17;0.50;;;;;;;18.30;49.24;101292.84;4951260;29;20035;-67
2024/01/24 02:47:14;;;;;;;1.20;0.60;;;;;;;18.18;49.43;101288.47;4951369;28;20031;-69
2024/01/24 02:49:40;;;;;;;0.73;0.50;;;;;;;18.19;49.52;101284.88;4950809;29;20039;-70
2024/01/24 02:52:06;;;;;;;0.80;0.50;;;;;;;18.15;49.58;101267.59;4951151;29;20138;-70
2024/01/24 02:54:31;;;;;;;1.63;0.50;;;;;;;18.19;49.60;101290.16;4950883;28;20031;-70
2024/01/24 02:56:57;;;;;;;1.63;0.60;;;;;;;18.26;49.62;101283.47;4951016;29;20078;-70
2024/01/24 02:59:22;;;;;;;0.82;0.40;;;;;;;18.26;49.41;101283.47;4950789;28;20488;-71
2024/01/24 03:01:47;;;;;;;0.98;0.47;;;;;;;18.09;49.43;101242.53;4947898;29;20082;-70
2024/01/24 03:04:13;;;;;;;0.95;0.50;;;;;;;18.18;49.47;101260.28;4949612;29;20043;-70
2024/01/24 03:06:40;;;;;;;0.55;0.40;;;;;;;18.16;49.67;101267.47;4950822;29;20034;-68
2024/01/24 03:09:05;;;;;;;1.50;0.52;;;;;;;18.25;49.41;101284.44;4950852;28;20031;-69
2024/01/24 03:11:30;;;;;;;0.87;0.50;;;;;;;18.24;49.99;101280.09;4950451;29;20031;-68
2024/01/24 03:13:55;;;;;;;1.17;0.55;;;;;;;18.25;49.78;101272.06;4950752;29;20738;-70
2024/01/24 03:16:21;;;;;;;1.08;0.50;;;;;;;18.23;49.75;101274.00;4950648;29;20039;-68
2024/01/24 03:18:47;;;;;;;0.63;0.32;;;;;;;18.23;49.91;101268.72;4950668;29;20464;-69
2024/01/24 03:21:17;;;;;;;0.88;0.50;;;;;;;18.25;49.77;101303.75;4950726;29;20121;-70
2024/01/24 03:23:43;;;;;;;0.60;0.30;;;;;;;18.12;49.69;101273.97;4950867;28;20027;-68
2024/01/24 03:26:08;;;;;;;1.25;0.50;;;;;;;18.21;49.83;101281.16;4950653;29;20027;-68
2024/01/24 03:28:34;;;;;;;1.77;0.65;;;;;;;18.17;49.78;101302.63;4950621;29;20028;-70
2024/01/24 03:31:02;;;;;;;0.90;0.40;;;;;;;18.10;49.71;101295.19;4950387;28;20053;-68
2024/01/24 03:33:28;;;;;;;1.50;0.60;;;;;;;18.11;49.71;101306.56;4950482;29;20043;-69
2024/01/24 03:35:53;;;;;;;1.08;0.50;;;;;;;18.11;49.82;101323.22;4950349;29;20063;-68
2024/01/24 03:38:19;;;;;;;1.10;0.43;;;;;;;18.09;49.97;101326.94;4950103;29;20027;-71
2024/01/24 03:40:45;;;;;;;1.67;0.57;;;;;;;18.10;49.48;101339.16;4949434;28;20039;-71
2024/01/24 03:43:11;;;;;;;0.80;0.50;;;;;;;18.12;49.43;101355.72;4950247;28;20369;-70
2024/01/24 03:45:39;;;;;;;0.68;0.40;;;;;;;18.19;49.57;101356.94;4949751;28;20035;-70
2024/01/24 03:48:06;;;;;;;0.45;0.40;;;;;;;18.21;49.64;101362.13;4949981;28;20535;-70
2024/01/24 03:50:32;;;;;;;1.85;0.60;;;;;;;18.10;49.56;101357.63;4950254;28;20063;-71
2024/01/24 03:52:57;;;;;;;1.70;0.57;;;;;;;18.16;49.73;101372.16;4949466;28;20031;-68
2024/01/24 03:55:23;;;;;;;0.95;0.50;;;;;;;18.19;49.74;101374.59;4949695;29;20280;-69
2024/01/24 03:57:48;;;;;;;0.85;0.47;;;;;;;18.16;49.57;101388.00;4948530;29;20595;-68
2024/01/24 04:00:16;;;;;;;1.67;0.68;;;;;;;18.19;49.36;101380.69;4949656;29;20444;-70
2024/01/24 04:02:41;;;;;;;2.25;0.70;;;;;;;18.18;49.42;101397.47;4948062;28;20408;-69
2024/01/24 04:05:07;;;;;;;1.80;0.75;;;;;;;18.18;49.34;101389.56;4949414;29;20039;-68
2024/01/24 04:07:32;;;;;;;2.42;0.70;;;;;;;18.09;49.18;101375.25;4949724;29;20039;-69
2024/01/24 04:09:58;;;;;;;2.88;0.73;;;;;;;18.14;48.96;101369.66;4949325;29;20055;-69
2024/01/24 04:12:23;;;;;;;2.78;0.80;;;;;;;18.07;49.12;101344.66;4950155;28;20523;-70
2024/01/24 04:14:49;;;;;;;2.10;0.73;;;;;;;18.10;49.06;101350.56;4949427;29;20126;-70
2024/01/24 04:17:14;;;;;;;2.67;0.68;;;;;;;18.02;48.99;101355.53;4949477;29;20662;-67
2024/01/24 04:19:39;;;;;;;1.48;0.60;;;;;;;18.03;48.86;101341.41;4949385;29;20027;-70
2024/01/24 04:22:04;;;;;;;4.68;1.05;;;;;;;18.15;48.90;101352.00;4949404;29;20110;-68
2024/01/24 04:24:30;;;;;;;2.30;0.70;;;;;;;18.10;49.10;101361.13;4949433;29;20424;-69
2024/01/24 04:26:55;;;;;;;2.25;0.65;;;;;;;18.09;48.77;101356.78;4949109;29;20082;-69
2024/01/24 04:29:20;;;;;;;4.05;0.80;;;;;;;18.07;48.60;101377.16;4948964;29;20436;-68
2024/01/24 04:31:45;;;;;;;2.78;0.80;;;;;;;18.01;48.52;101371.47;4948931;29;20027;-70
2024/01/24 04:34:11;;;;;;;3.35;0.90;;;;;;;18.15;48.60;101412.69;4949362;29;20357;-69
2024/01/24 04:36:36;;;;;;;3.30;1.02;;;;;;;18.12;48.33;101408.50;4949321;29;20055;-68
2024/01/24 04:39:02;;;;;;;3.08;0.90;;;;;;;18.11;48.26;101435.81;4949258;29;20027;-69
2024/01/24 04:41:27;;;;;;;3.50;1.20;;;;;;;18.00;48.22;101404.09;4949095;28;20503;-69
2024/01/24 04:43:52;;;;;;;5.78;1.15;;;;;;;18.08;48.36;101407.84;4949157;29;20033;-68
2024/01/24 04:46:19;;;;;;;4.28;1.38;;;;;;;18.04;48.09;101410.81;4949006;29;20038;-68
2024/01/24 04:48:45;;;;;;;4.82;1.05;;;;;;;18.11;48.21;101430.53;4949134;29;20086;-70
2024/01/24 04:51:13;;;;;;;4.45;1.10;;;;;;;18.11;48.12;101426.09;4948585;28;20034;-71
2024/01/24 04:53:39;;;;;;;3.97;1.05;;;;;;;18.10;47.84;101432.34;4949127;28;20027;-69
2024/01/24 04:56:05;;;;;;;3.63;0.98;;;;;;;17.99;47.91;101405.03;4949100;28;20130;-68
2024/01/24 04:58:30;;;;;;;3.42;0.90;;;;;;;18.06;47.89;101430.03;4949153;28;20131;-69
2024/01/24 05:00:55;;;;;;;4.17;1.03;;;;;;;17.97;47.67;101394.59;4948692;29;20035;-70
2024/01/24 05:03:21;;;;;;;4.90;1.42;;;;;;;18.06;47.88;101414.19;4946914;29;20324;-69
2024/01/24 05:05:46;;;;;;;5.10;1.33;;;;;;;18.07;47.93;101415.88;4948785;29;20039;-70
2024/01/24 05:08:11;;;;;;;6.18;1.83;;;;;;;18.08;47.77;101404.38;4949117;28;20483;-69
2024/01/24 05:10:37;;;;;;;5.03;1.15;;;;;;;18.04;47.59;101395.84;4948820;29;20074;-70
2024/01/24 05:13:02;;;;;;;4.03;1.42;;;;;;;18.03;47.54;101412.63;4948631;29;20403;-70
2024/01/24 05:15:27;;;;;;;4.53;1.30;;;;;;;18.02;47.62;101447.84;4948772;28;20157;-70
2024/01/24 05:17:53;;;;;;;5.50;1.40;;;;;;;18.04;47.80;101458.28;4947316;29;20035;-70
2024/01/24 05:20:18;;;;;;;7.97;1.67;;;;;;;18.08;47.57;101459.75;4946240;29;20286;-69
2024/01/24 05:22:43;;;;;;;4.88;1.40;;;;;;;17.97;47.57;101464.97;4948128;29;20117;-70
2024/01/24 05:25:09;;;;;;;4.45;1.42;;;;;;;17.95;47.54;101463.25;4943741;29;20058;-70
2024/01/24 05:27:35;;;;;;;6.13;1.52;;;;;;;18.03;47.55;101462.72;4947626;28;20035;-69
2024/01/24 05:30:00;;;;;;;5.60;1.60;;;;;;;17.92;47.34;101463.47;4948160;28;20122;-70
2024/01/24 05:32:25;;;;;;;6.28;1.60;;;;;;;18.03;47.13;101457.44;4948400;29;20186;-70
2024/01/24 05:34:50;;;;;;;7.22;2.17;;;;;;;18.02;47.35;101479.50;4948191;29;20058;-68
2024/01/24 05:37:16;;;;;;;5.72;1.42;;;;;;;18.04;47.17;101474.09;4948185;29;20027;-69
2024/01/24 05:39:41;;;;;;;6.72;1.60;;;;;;;18.02;47.05;101481.28;4948749;29;20039;-70
2024/01/24 05:42:07;;;;;;;6.53;2.05;;;;;;;17.91;47.22;101479.41;4948109;28;20038;-69
2024/01/24 05:44:33;;;;;;;6.63;1.85;;;;;;;17.90;46.99;101477.75;4947178;28;20035;-69
2024/01/24 05:46:58;;;;;;;7.72;1.30;;;;;;;17.99;46.94;101497.34;4947951;28;20043;-69
2024/01/24 05:49:23;;;;;;;6.22;1.70;;;;;;;17.97;47.33;101492.16;4948116;29;20059;-69
2024/01/24 05:51:49;;;;;;;6.85;1.60;;;;;;;17.99;47.10;101498.19;4948366;29;20035;-70
2024/01/24 05:54:14;;;;;;;6.50;2.00;;;;;;;17.93;47.11;101507.38;4948627;29;20368;-70
2024/01/24 05:56:40;;;;;;;6.40;2.08;;;;;;;18.02;47.09;101518.22;4947538;29;20031;-69
2024/01/24 05:59:05;;;;;;;8.23;2.30;;;;;;;17.89;46.99;101500.59;4948305;29;20019;-70
2024/01/24 06:01:30;;;;;;;5.82;1.65;;;;;;;18.00;47.03;101509.59;4948346;29;20070;-69
2024/01/24 06:03:57;;;;;;;6.25;2.00;;;;;;;17.85;46.92;101506.16;4947736;28;20093;-69
2024/01/24 06:06:22;;;;;;;6.43;2.17;;;;;;;17.95;46.78;101509.91;4951949;29;20063;-71
2024/01/24 06:08:47;;;;;;;7.80;2.08;;;;;;;17.99;46.85;101514.03;4949443;29;20074;-69
2024/01/24 06:11:14;;;;;;;8.95;2.67;;;;;;;17.86;46.98;101502.59;4951109;29;20056;-71
2024/01/24 06:13:40;;;;;;;7.38;1.90;;;;;;;17.87;46.79;101502.50;4949173;29;20042;-69
2024/01/24 06:16:06;;;;;;;6.80;2.00;;;;;;;17.87;46.60;101499.84;4951746;28;20365;-70
2024/01/24 06:18:31;;;;;;;7.25;2.38;;;;;;;17.88;46.93;101506.00;4950550;28;20082;-70
2024/01/24 06:20:57;;;;;;;7.10;2.30;;;;;;;17.94;46.61;101539.84;4951773;28;20117;-70
2024/01/24 06:23:22;;;;;;;7.13;1.90;;;;;;;17.91;46.62;101537.41;4951605;29;20039;-69
2024/01/24 06:25:47;;;;;;;8.60;2.17;;;;;;;17.93;46.71;101561.91;4951875;29;20086;-70
2024/01/24 06:28:13;;;;;;;5.65;1.60;;;;;;;17.86;46.77;101526.31;4950754;29;20462;-69
2024/01/24 06:30:38;;;;;;;9.13;2.13;;;;;;;18.07;46.89;101590.81;4950686;28;20448;-70
2024/01/24 06:33:04;;;;;;;6.43;1.98;;;;;;;18.05;46.79;101592.69;4951611;28;20031;-70
2024/01/24 06:35:31;;;;;;;8.25;2.47;;;;;;;17.98;46.57;101578.25;4950763;28;20121;-70
2024/01/24 06:37:56;;;;;;;7.35;2.25;;;;;;;18.17;46.44;101596.28;4950277;28;20451;-70
2024/01/24 06:40:22;;;;;;;9.25;2.72;;;;;;;18.09;46.19;101599.47;4950029;28;20034;-71
2024/01/24 06:42:47;;;;;;;7.60;2.00;;;;;;;18.13;46.78;101626.47;4951266;29;20035;-69
2024/01/24 06:45:12;;;;;;;5.15;1.42;;;;;;;18.25;46.91;101640.63;4950872;29;20042;-69
2024/01/24 06:47:38;;;;;;;7.10;2.10;;;;;;;18.29;46.97;101655.28;4950719;29;20043;-68
2024/01/24 06:50:07;;;;;;;8.70;2.22;;;;;;;18.30;46.85;101633.22;4950987;28;20042;-70
2024/01/24 06:52:32;;;;;;;8.93;2.33;;;;;;;18.37;46.79;101660.03;4950925;28;20027;-68
2024/01/24 06:54:57;;;;;;;10.30;2.53;;;;;;;18.28;46.76;101683.47;4950738;29;20429;-70
2024/01/24 06:57:23;;;;;;;7.40;2.10;;;;;;;18.42;46.62;101693.06;4950642;29;20054;-69
2024/01/24 06:59:48;;;;;;;8.02;2.22;;;;;;;18.42;46.58;101705.41;4950637;29;21176;-69
2024/01/24 07:02:14;;;;;;;7.53;2.28;;;;;;;18.40;46.49;101704.69;4948576;29;20126;-68
2024/01/24 07:04:39;;;;;;;8.48;2.35;;;;;;;18.37;46.49;101674.06;4950400;29;20031;-67
2024/01/24 07:07:05;;;;;;;9.65;2.50;;;;;;;18.45;46.70;101649.78;4949370;28;20038;-65
2024/01/24 07:09:30;;;;;;;11.43;2.88;;;;;;;18.46;46.71;101676.06;4949884;29;20035;-67
2024/01/24 07:11:55;;;;;;;10.45;2.55;;;;;;;18.50;46.60;101682.00;4950384;29;20031;-66
2024/01/24 07:14:21;;;;;;;8.85;2.40;;;;;;;18.46;46.45;101683.13;4949992;29;20464;-69
2024/01/24 07:16:46;;;;;;;10.38;2.83;;;;;;;18.43;46.47;101673.63;4946705;28;20043;-69
2024/01/24 07:19:11;;;;;;;11.07;3.20;;;;;;;18.48;46.40;101679.47;4948027;29;20689;-69
2024/01/24 07:21:37;;;;;;;10.00;2.70;;;;;;;18.52;46.19;101698.56;4949865;29;20039;-72
2024/01/24 07:24:03;;;;;;;11.25;2.60;;;;;;;18.47;46.22;101704.16;4947007;29;20066;-72
2024/01/24 07:26:28;;;;;;;12.43;2.72;;;;;;;18.40;46.41;101702.03;4948492;28;20484;-71
2024/01/24 07:28:54;;;;;;;10.13;2.70;;;;;;;18.45;46.78;101708.69;4949174;29;20046;-71
2024/01/24 07:31:19;;;;;;;9.70;3.03;;;;;;;18.39;46.42;101697.69;4946455;28;20035;-70
2024/01/24 07:33:44;;;;;;;9.68;2.70;;;;;;;18.52;46.27;101714.41;4948805;29;20105;-71
2024/01/24 07:36:09;;;;;;;10.95;3.08;;;;;;;18.48;46.20;101737.53;4949170;29;20094;-68
2024/01/24 07:38:36;;;;;;;10.82;2.90;;;;;;;18.54;46.23;101744.16;4949576;29;20365;-68
2024/01/24 07:41:02;;;;;;;10.70;3.10;;;;;;;18.56;46.00;101736.97;4948699;29;20681;-69
2024/01/24 07:43:29;;;;;;;11.32;2.90;;;;;;;18.40;46.29;101708.16;4949395;28;20071;-69
2024/01/24 07:45:54;;;;;;;9.85;2.88;;;;;;;18.52;46.06;101726.72;4949690;29;20035;-68
2024/01/24 07:48:19;;;;;;;10.20;2.70;;;;;;;18.39;46.12;101717.03;4949968;29;20436;-68
2024/01/24 07:50:45;;;;;;;10.27;3.25;;;;;;;18.39;46.23;101737.28;4949720;29;20042;-68
2024/01/24 07:53:11;;;;;;;8.30;2.47;;;;;;;18.39;45.98;101743.44;4949207;29;20030;-66
2024/01/24 07:55:36;;;;;;;9.57;2.95;;;;;;;18.48;46.23;101774.47;4949526;28;20039;-69
2024/01/24 07:58:02;;;;;;;8.73;2.70;;;;;;;18.45;46.00;101757.97;4949304;29;20118;-68
2024/01/24 08:00:27;;;;;;;11.35;3.08;;;;;;;18.42;45.74;101769.63;4949021;29;20074;-68
2024/01/24 08:02:53;;;;;;;11.20;3.10;;;;;;;18.48;46.07;101786.81;4947791;29;20031;-70
2024/01/24 08:05:19;;;;;;;9.13;2.58;;;;;;;18.49;45.95;101792.00;4948593;29;20423;-70
2024/01/24 08:07:44;;;;;;;9.77;2.58;;;;;;;18.40;45.94;101768.84;4949205;28;20038;-69
2024/01/24 08:10:13;;;;;;;9.80;2.72;;;;;;;18.50;45.88;101790.22;4947758;29;20031;-68
2024/01/24 08:12:39;;;;;;;9.10;2.80;;;;;;;18.38;45.52;101754.91;4946728;28;20062;-68
2024/01/24 08:15:06;;;;;;;8.95;3.00;;;;;;;18.38;45.48;101764.66;4948508;28;20105;-69
2024/01/24 08:17:32;;;;;;;10.50;3.35;;;;;;;18.48;45.30;101794.72;4948559;28;20106;-69
2024/01/24 08:19:58;;;;;;;14.90;2.92;;;;;;;18.36;45.59;101790.28;4948532;28;20114;-68
2024/01/24 08:22:23;;;;;;;12.50;3.20;;;;;;;18.46;45.25;101786.91;4949116;28;20110;-68
2024/01/24 08:24:49;;;;;;;10.70;2.78;;;;;;;18.38;45.37;101798.94;4948701;28;20031;-70
2024/01/24 08:27:14;;;;;;;11.07;3.05;;;;;;;18.37;45.48;101808.63;4948516;28;20486;-68
2024/01/24 08:29:39;;;;;;;12.35;3.58;;;;;;;18.47;45.18;101833.50;4949114;29;20035;-69
2024/01/24 08:32:05;;;;;;;10.48;2.95;;;;;;;18.34;45.05;101792.19;4948780;29;20035;-68
2024/01/24 08:34:30;;;;;;;11.77;3.55;;;;;;;18.45;45.04;101811.63;4947081;29;20114;-68
2024/01/24 08:36:56;;;;;;;8.23;2.50;;;;;;;18.33;44.92;101807.19;4949540;29;20047;-69
2024/01/24 08:39:21;;;;;;;11.05;3.38;;;;;;;18.37;45.11;101818.38;4948742;29;20027;-69
2024/01/24 08:41:46;;;;;;;12.57;3.05;;;;;;;18.34;45.15;101824.72;4948923;29;20043;-69
2024/01/24 08:44:12;;;;;;;10.98;2.85;;;;;;;18.46;44.85;101852.06;4948829;29;20043;-70
2024/01/24 08:46:37;;;;;;;11.10;3.08;;;;;;;18.45;44.76;101850.38;4948703;29;20848;-69
2024/01/24 08:49:02;;;;;;;11.32;3.00;;;;;;;18.31;44.77;101854.78;4948769;29;20042;-70
2024/01/24 08:51:31;;;;;;;10.85;3.28;;;;;;;18.42;44.92;101861.13;4949022;29;20031;-70
2024/01/24 08:53:56;;;;;;;12.82;2.83;;;;;;;18.32;44.72;101845.06;4948999;28;20062;-69
2024/01/24 08:56:21;;;;;;;12.43;3.00;;;;;;;18.40;44.68;101842.75;4948777;29;20031;-70
2024/01/24 08:58:47;;;;;;;11.53;3.10;;;;;;;18.31;44.60;101833.66;4948578;29;20031;-70
2024/01/24 09:01:12;;;;;;;10.48;3.03;;;;;;;18.41;44.72;101851.53;4948810;29;20607;-70
2024/01/24 09:03:38;;;;;;;12.23;3.25;;;;;;;18.40;44.62;101868.31;4946865;29;20035;-69
2024/01/24 09:06:04;;;;;;;9.93;2.80;;;;;;;18.29;44.69;101874.28;4948292;29;20046;-70
2024/01/24 09:08:29;;;;;;;10.82;2.92;;;;;;;18.28;44.47;101884.00;4948201;29;20031;-69
2024/01/24 09:10:54;;;;;;;13.07;3.05;;;;;;;18.32;44.49;101924.22;4948218;29;20035;-70
2024/01/24 09:13:22;;;;;;;12.48;3.22;;;;;;;18.40;44.34;101921.94;4948265;29;20424;-70
2024/01/24 09:15:47;;;;;;;13.13;3.20;;;;;;;18.39;44.48;101895.63;4948209;29;20090;-69
2024/01/24 09:18:13;;;;;;;10.13;2.45;;;;;;;18.44;44.33;101896.19;4948116;28;20031;-69
2024/01/24 09:20:38;;;;;;;12.13;3.55;;;;;;;18.41;44.45;101886.69;4948629;28;20468;-68
2024/01/24 09:23:03;;;;;;;11.95;3.25;;;;;;;18.36;44.34;101901.13;4948955;29;20460;-68
2024/01/24 09:25:29;;;;;;;9.02;2.80;;;;;;;18.37;44.37;101916.84;4948456;28;20031;-69
2024/01/24 09:27:55;;;;;;;10.93;3.38;;;;;;;18.31;44.31;101919.91;4948409;29;20042;-69
2024/01/24 09:30:21;;;;;;;11.02;2.53;;;;;;;18.41;44.16;101925.44;4947077;29;20106;-70
2024/01/24 09:32:46;;;;;;;13.13;3.25;;;;;;;18.37;44.21;101908.09;4948015;28;20134;-69
2024/01/24 09:35:12;;;;;;;10.90;3.20;;;;;;;18.40;44.22;101958.03;4948416;29;20051;-69
2024/01/24 09:37:37;;;;;;;10.98;2.80;;;;;;;18.25;44.26;101936.13;4948222;28;20074;-70
2024/01/24 09:40:05;;;;;;;11.75;3.15;;;;;;;18.29;44.16;101938.50;4950699;28;20027;-69
2024/01/24 09:42:32;;;;;;;12.05;3.63;;;;;;;18.44;44.29;101967.47;4952457;29;20051;-69
2024/01/24 09:44:58;;;;;;;11.35;2.95;;;;;;;18.41;43.95;101979.06;4952188;28;20135;-69
2024/01/24 09:47:24;;;;;;;10.43;3.33;;;;;;;18.31;43.95;101964.78;4952254;28;20109;-67
2024/01/24 09:49:50;;;;;;;14.23;3.45;;;;;;;18.44;43.80;101968.31;4952077;28;20584;-68
2024/01/24 09:52:23;;;;;;;8.15;2.45;;;;;;;18.33;43.92;101948.84;4951726;28;20122;-68
2024/01/24 09:54:53;;;;;;;11.93;3.17;;;;;;;18.33;43.90;101954.97;4952381;28;20031;-69
2024/01/24 09:57:20;;;;;;;10.82;3.17;;;;;;;18.45;44.07;101964.72;4951866;28;20472;-69
2024/01/24 09:59:46;;;;;;;10.38;3.05;;;;;;;18.43;43.71;101971.03;4952317;28;20035;-68
2024/01/24 10:02:11;;;;;;;14.48;3.40;;;;;;;18.34;43.65;101964.59;4949908;29;20031;-68
2024/01/24 10:04:37;;;;;;;10.60;3.17;;;;;;;18.30;43.69;101984.19;4951654;29;20055;-69
2024/01/24 10:07:13;;;;;;;11.95;3.13;;;;;;;18.31;43.68;101985.88;4951562;28;20038;-67
2024/01/24 10:09:38;;;;;;;10.23;3.05;;;;;;;18.37;43.79;102001.31;4951588;28;20035;-69
2024/01/24 10:12:04;;;;;;;11.13;3.70;;;;;;;18.45;43.68;102017.53;4951584;29;20395;-69
2024/01/24 10:14:29;;;;;;;10.90;2.70;;;;;;;18.31;43.50;102001.72;4951366;28;20035;-68
2024/01/24 10:16:56;;;;;;;11.43;3.33;;;;;;;18.36;43.92;101993.47;4951202;28;20055;-68
2024/01/24 10:19:23;;;;;;;11.77;3.17;;;;;;;18.32;43.80;102016.59;4950997;29;20439;-69
2024/01/24 10:21:49;;;;;;;11.52;3.22;;;;;;;18.31;43.76;102020.19;4950180;29;20058;-69
2024/01/24 10:24:14;;;;;;;11.43;3.22;;;;;;;18.39;43.86;102012.63;4951261;28;20472;-69
2024/01/24 10:26:40;;;;;;;12.63;3.55;;;;;;;18.42;43.85;102041.47;4951199;29;20047;-69
2024/01/24 10:29:07;;;;;;;9.48;3.20;;;;;;;18.45;43.67;102066.81;4951061;29;20032;-70
2024/01/24 10:31:32;;;;;;;12.45;3.38;;;;;;;18.39;43.63;102056.63;4945760;28;20039;-69
2024/01/24 10:33:58;;;;;;;10.35;2.88;;;;;;;18.40;43.46;102056.53;4947046;29;20034;-69
2024/01/24 10:36:23;;;;;;;13.27;3.40;;;;;;;18.35;43.54;102032.22;4950075;29;20047;-68
2024/01/24 10:38:57;;;;;;;9.48;3.00;;;;;;;18.36;43.55;102039.22;4949711;28;20031;-69
2024/01/24 10:41:24;;;;;;;15.38;3.97;;;;;;;18.47;43.19;102049.94;4948893;28;20067;-68
2024/01/24 10:43:56;;;;;;;11.73;3.67;;;;;;;18.45;43.20;102062.41;4949862;28;20719;-70
2024/01/24 10:46:22;;;;;;;12.63;3.72;;;;;;;18.46;43.19;102072.00;4949417;28;20061;-70
2024/01/24 10:48:49;;;;;;;13.25;3.42;;;;;;;18.36;43.08;102046.25;4949761;28;20480;-69
2024/01/24 10:51:14;;;;;;;11.57;3.05;;;;;;;18.33;43.13;102044.69;4949973;28;20035;-69
2024/01/24 10:53:40;;;;;;;13.15;2.83;;;;;;;18.48;43.15;102042.84;4951113;28;20078;-69
2024/01/24 10:56:07;;;;;;;9.73;3.22;;;;;;;18.40;42.88;102048.63;4950856;29;20039;-70
2024/01/24 10:58:34;;;;;;;9.73;2.90;;;;;;;18.38;43.05;102045.25;4949216;28;20672;-69
2024/01/24 11:00:59;;;;;;;12.82;3.13;;;;;;;18.49;42.76;102069.16;4951153;28;20070;-69
2024/01/24 11:03:26;;;;;;;10.85;3.85;;;;;;;18.46;43.04;102079.91;4948651;29;20031;-69
2024/01/24 11:05:55;;;;;;;10.77;3.30;;;;;;;18.52;42.87;102073.41;4950355;28;20374;-69
2024/01/24 11:08:33;;;;;;;11.52;3.35;;;;;;;18.51;42.87;102095.47;4950384;28;20032;-69
2024/01/24 11:11:04;;;;;;;12.70;3.60;;;;;;;18.44;42.96;102084.44;4948440;28;20043;-68
2024/01/24 11:13:33;;;;;;;15.02;3.80;;;;;;;18.47;42.89;102086.91;4946998;29;20541;-71
2024/01/24 11:15:59;;;;;;;11.45;3.42;;;;;;;18.45;43.08;102099.34;4944842;29;20028;-70